sensor_id;sensor_type;location;lat;lon;timestamp;temperature;humidity
947;DHT22;460;48.734;9.152;2023-09-19T00:00:20;16.50;99.90
947;DHT22;460;48.734;9.152;2023-09-19T00:02:53;16.50;99.90
947;DHT22;460;48.734;9.152;2023-09-19T00:05:22;16.50;99.90
947;DHT22;460;48.734;9.152;2023-09-19T00:07:53;16.60;99.90
947;DHT22;460;48.734;9.152;2023-09-19T00:10:20;16.60;99.90
947;DHT22;460;48.734;9.152;2023-09-19T00:12:50;16.50;99.90
947;DHT22;460;48.734;9.152;2023-09-19T00:15:17;16.50;99.90
947;DHT22;460;48.734;9.152;2023-09-19T00:17:44;16.50;99.90
947;DHT22;460;48.734;9.152;2023-09-19T00:20:13;16.50;99.90
947;DHT22;460;48.734;9.152;2023-09-19T00:22:42;16.60;99.90
947;DHT22;460;48.734;9.152;2023-09-19T00:25:09;16.50;99.90
947;DHT22;460;48.734;9.152;2023-09-19T00:27:37;16.50;99.90
947;DHT22;460;48.734;9.152;2023-09-19T00:30:10;16.60;99.90
947;DHT22;460;48.734;9.152;2023-09-19T00:32:41;16.50;99.90
947;DHT22;460;48.734;9.152;2023-09-19T00:35:08;16.50;99.90
947;DHT22;460;48.734;9.152;2023-09-19T00:37:37;16.50;99.90
947;DHT22;460;48.734;9.152;2023-09-19T00:40:06;16.40;99.90
947;DHT22;460;48.734;9.152;2023-09-19T00:42:37;16.50;99.90
947;DHT22;460;48.734;9.152;2023-09-19T00:45:05;16.50;99.90
947;DHT22;460;48.734;9.152;2023-09-19T00:47:35;16.60;99.90
947;DHT22;460;48.734;9.152;2023-09-19T00:50:04;16.60;99.90
947;DHT22;460;48.734;9.152;2023-09-19T00:52:33;16.50;99.90
947;DHT22;460;48.734;9.152;2023-09-19T00:55:05;16.60;99.90
947;DHT22;460;48.734;9.152;2023-09-19T00:57:32;16.60;99.90
947;DHT22;460;48.734;9.152;2023-09-19T01:00:00;16.40;99.90
947;DHT22;460;48.734;9.152;2023-09-19T01:02:31;16.40;99.90
947;DHT22;460;48.734;9.152;2023-09-19T01:04:58;16.40;99.90
947;DHT22;460;48.734;9.152;2023-09-19T01:07:25;16.50;99.90
947;DHT22;460;48.734;9.152;2023-09-19T01:09:55;16.40;99.90
947;DHT22;460;48.734;9.152;2023-09-19T01:12:30;16.50;99.90
947;DHT22;460;48.734;9.152;2023-09-19T01:15:06;16.40;99.90
947;DHT22;460;48.734;9.152;2023-09-19T01:17:43;16.40;99.90
947;DHT22;460;48.734;9.152;2023-09-19T01:20:19;16.40;99.90
947;DHT22;460;48.734;9.152;2023-09-19T01:22:59;16.40;99.90
947;DHT22;460;48.734;9.152;2023-09-19T01:26:06;16.40;99.90
947;DHT22;460;48.734;9.152;2023-09-19T01:28:52;16.40;99.90
947;DHT22;460;48.734;9.152;2023-09-19T01:31:24;16.50;99.90
947;DHT22;460;48.734;9.152;2023-09-19T01:33:57;16.30;99.90
947;DHT22;460;48.734;9.152;2023-09-19T01:36:30;16.40;99.90
947;DHT22;460;48.734;9.152;2023-09-19T01:39:02;16.40;99.90
947;DHT22;460;48.734;9.152;2023-09-19T01:41:47;16.40;99.90
947;DHT22;460;48.734;9.152;2023-09-19T01:44:25;16.30;99.90
947;DHT22;460;48.734;9.152;2023-09-19T01:47:00;16.40;99.90
947;DHT22;460;48.734;9.152;2023-09-19T01:49:37;16.40;99.90
947;DHT22;460;48.734;9.152;2023-09-19T01:52:11;16.50;99.90
947;DHT22;460;48.734;9.152;2023-09-19T01:54:48;16.40;99.90
947;DHT22;460;48.734;9.152;2023-09-19T01:57:22;16.50;99.90
947;DHT22;460;48.734;9.152;2023-09-19T01:59:59;16.50;99.90
947;DHT22;460;48.734;9.152;2023-09-19T02:02:34;16.50;99.90
947;DHT22;460;48.734;9.152;2023-09-19T02:05:02;16.50;99.90
947;DHT22;460;48.734;9.152;2023-09-19T02:07:29;16.50;99.90
947;DHT22;460;48.734;9.152;2023-09-19T02:10:00;16.40;99.90
947;DHT22;460;48.734;9.152;2023-09-19T02:12:27;16.40;99.90
947;DHT22;460;48.734;9.152;2023-09-19T02:14:54;16.40;99.90
947;DHT22;460;48.734;9.152;2023-09-19T02:17:21;16.40;99.90
947;DHT22;460;48.734;9.152;2023-09-19T02:19:54;16.40;99.90
947;DHT22;460;48.734;9.152;2023-09-19T02:22:23;16.30;99.90
947;DHT22;460;48.734;9.152;2023-09-19T02:24:51;16.40;99.90
947;DHT22;460;48.734;9.152;2023-09-19T02:27:20;16.40;99.90
947;DHT22;460;48.734;9.152;2023-09-19T02:29:47;16.30;99.90
947;DHT22;460;48.734;9.152;2023-09-19T02:32:16;16.30;99.90
947;DHT22;460;48.734;9.152;2023-09-19T02:34:45;16.30;99.90
947;DHT22;460;48.734;9.152;2023-09-19T02:37:14;16.20;99.90
947;DHT22;460;48.734;9.152;2023-09-19T02:39:42;16.30;99.90
947;DHT22;460;48.734;9.152;2023-09-19T02:42:10;16.30;99.90
947;DHT22;460;48.734;9.152;2023-09-19T02:44:37;16.20;99.90
947;DHT22;460;48.734;9.152;2023-09-19T02:47:06;16.20;99.90
947;DHT22;460;48.734;9.152;2023-09-19T02:49:33;16.20;99.90
947;DHT22;460;48.734;9.152;2023-09-19T02:52:01;16.10;99.90
947;DHT22;460;48.734;9.152;2023-09-19T02:54:31;16.10;99.90
947;DHT22;460;48.734;9.152;2023-09-19T02:56:59;16.00;99.90
947;DHT22;460;48.734;9.152;2023-09-19T02:59:28;16.00;99.90
947;DHT22;460;48.734;9.152;2023-09-19T03:01:56;16.00;99.90
947;DHT22;460;48.734;9.152;2023-09-19T03:04:24;16.10;99.90
947;DHT22;460;48.734;9.152;2023-09-19T03:06:53;16.10;99.90
947;DHT22;460;48.734;9.152;2023-09-19T03:09:24;16.10;99.90
947;DHT22;460;48.734;9.152;2023-09-19T03:11:52;16.20;99.90
947;DHT22;460;48.734;9.152;2023-09-19T03:14:20;16.20;99.90
947;DHT22;460;48.734;9.152;2023-09-19T03:16:49;16.20;99.90
947;DHT22;460;48.734;9.152;2023-09-19T03:19:17;16.10;99.90
947;DHT22;460;48.734;9.152;2023-09-19T03:21:46;16.20;99.90
947;DHT22;460;48.734;9.152;2023-09-19T03:24:14;16.20;99.90
947;DHT22;460;48.734;9.152;2023-09-19T03:26:41;16.30;99.90
947;DHT22;460;48.734;9.152;2023-09-19T03:29:09;16.20;99.90
947;DHT22;460;48.734;9.152;2023-09-19T03:31:36;16.20;99.90
947;DHT22;460;48.734;9.152;2023-09-19T03:34:03;16.20;99.90
947;DHT22;460;48.734;9.152;2023-09-19T03:36:31;16.20;99.90
947;DHT22;460;48.734;9.152;2023-09-19T03:39:03;16.20;99.90
947;DHT22;460;48.734;9.152;2023-09-19T03:41:31;16.30;99.90
947;DHT22;460;48.734;9.152;2023-09-19T03:43:58;16.30;99.90
947;DHT22;460;48.734;9.152;2023-09-19T03:46:27;16.20;99.90
947;DHT22;460;48.734;9.152;2023-09-19T03:48:54;16.30;99.90
947;DHT22;460;48.734;9.152;2023-09-19T03:51:21;16.30;99.90
947;DHT22;460;48.734;9.152;2023-09-19T03:53:48;16.30;99.90
947;DHT22;460;48.734;9.152;2023-09-19T03:56:15;16.20;99.90
947;DHT22;460;48.734;9.152;2023-09-19T03:58:42;16.20;99.90
947;DHT22;460;48.734;9.152;2023-09-19T04:01:10;16.30;99.90
947;DHT22;460;48.734;9.152;2023-09-19T04:03:40;16.30;99.90
947;DHT22;460;48.734;9.152;2023-09-19T04:06:13;16.40;99.90
947;DHT22;460;48.734;9.152;2023-09-19T04:08:40;16.40;99.90
947;DHT22;460;48.734;9.152;2023-09-19T04:11:07;16.30;99.90
947;DHT22;460;48.734;9.152;2023-09-19T04:13:34;16.30;99.90
947;DHT22;460;48.734;9.152;2023-09-19T04:16:01;16.30;99.90
947;DHT22;460;48.734;9.152;2023-09-19T04:18:29;16.20;99.90
947;DHT22;460;48.734;9.152;2023-09-19T04:20:59;16.20;99.90
947;DHT22;460;48.734;9.152;2023-09-19T04:23:28;16.20;99.90
947;DHT22;460;48.734;9.152;2023-09-19T04:25:54;16.20;99.90
947;DHT22;460;48.734;9.152;2023-09-19T04:28:23;16.20;99.90
947;DHT22;460;48.734;9.152;2023-09-19T04:30:49;16.20;99.90
947;DHT22;460;48.734;9.152;2023-09-19T04:33:16;16.30;99.90
947;DHT22;460;48.734;9.152;2023-09-19T04:35:43;16.20;99.90
947;DHT22;460;48.734;9.152;2023-09-19T04:38:11;16.30;99.90
947;DHT22;460;48.734;9.152;2023-09-19T04:40:39;16.20;99.90
947;DHT22;460;48.734;9.152;2023-09-19T04:43:06;16.20;99.90
947;DHT22;460;48.734;9.152;2023-09-19T04:45:33;16.20;99.90
947;DHT22;460;48.734;9.152;2023-09-19T04:48:00;16.20;99.90
947;DHT22;460;48.734;9.152;2023-09-19T04:50:28;16.20;99.90
947;DHT22;460;48.734;9.152;2023-09-19T04:52:55;16.30;99.90
947;DHT22;460;48.734;9.152;2023-09-19T04:55:23;16.20;99.90
947;DHT22;460;48.734;9.152;2023-09-19T04:57:50;16.20;99.90
947;DHT22;460;48.734;9.152;2023-09-19T05:00:19;16.30;99.90
947;DHT22;460;48.734;9.152;2023-09-19T05:02:49;16.30;99.90
947;DHT22;460;48.734;9.152;2023-09-19T05:05:16;16.20;99.90
947;DHT22;460;48.734;9.152;2023-09-19T05:07:44;16.20;99.90
947;DHT22;460;48.734;9.152;2023-09-19T05:10:12;16.20;99.90
947;DHT22;460;48.734;9.152;2023-09-19T05:12:40;16.20;99.90
947;DHT22;460;48.734;9.152;2023-09-19T05:15:09;16.20;99.90
947;DHT22;460;48.734;9.152;2023-09-19T05:17:36;16.00;99.90
947;DHT22;460;48.734;9.152;2023-09-19T05:20:05;16.00;99.90
947;DHT22;460;48.734;9.152;2023-09-19T05:22:39;16.10;99.90
947;DHT22;460;48.734;9.152;2023-09-19T05:25:07;16.20;99.90
947;DHT22;460;48.734;9.152;2023-09-19T05:27:34;16.20;99.90
947;DHT22;460;48.734;9.152;2023-09-19T05:30:02;16.10;99.90
947;DHT22;460;48.734;9.152;2023-09-19T05:32:30;16.10;99.90
947;DHT22;460;48.734;9.152;2023-09-19T05:34:57;16.10;99.90
947;DHT22;460;48.734;9.152;2023-09-19T05:37:24;16.20;99.90
947;DHT22;460;48.734;9.152;2023-09-19T05:39:51;16.10;99.90
947;DHT22;460;48.734;9.152;2023-09-19T05:42:19;16.10;99.90
947;DHT22;460;48.734;9.152;2023-09-19T05:44:46;16.10;99.90
947;DHT22;460;48.734;9.152;2023-09-19T05:47:14;16.10;99.90
947;DHT22;460;48.734;9.152;2023-09-19T05:49:40;16.00;99.90
947;DHT22;460;48.734;9.152;2023-09-19T05:52:07;16.00;99.90
947;DHT22;460;48.734;9.152;2023-09-19T05:54:34;16.00;99.90
947;DHT22;460;48.734;9.152;2023-09-19T05:57:03;16.00;99.90
947;DHT22;460;48.734;9.152;2023-09-19T05:59:30;16.00;99.90
947;DHT22;460;48.734;9.152;2023-09-19T06:01:59;15.90;99.90
947;DHT22;460;48.734;9.152;2023-09-19T06:04:27;15.90;99.90
947;DHT22;460;48.734;9.152;2023-09-19T06:06:56;15.80;99.90
947;DHT22;460;48.734;9.152;2023-09-19T06:09:23;15.90;99.90
947;DHT22;460;48.734;9.152;2023-09-19T06:11:51;15.90;99.90
947;DHT22;460;48.734;9.152;2023-09-19T06:14:18;15.80;99.90
947;DHT22;460;48.734;9.152;2023-09-19T06:16:45;15.70;99.90
947;DHT22;460;48.734;9.152;2023-09-19T06:19:12;15.60;99.90
947;DHT22;460;48.734;9.152;2023-09-19T06:21:40;15.60;99.90
947;DHT22;460;48.734;9.152;2023-09-19T06:24:07;15.60;99.90
947;DHT22;460;48.734;9.152;2023-09-19T06:26:34;15.70;99.90
947;DHT22;460;48.734;9.152;2023-09-19T06:29:01;15.60;99.90
947;DHT22;460;48.734;9.152;2023-09-19T06:31:33;15.60;99.90
947;DHT22;460;48.734;9.152;2023-09-19T06:34:00;15.50;99.90
947;DHT22;460;48.734;9.152;2023-09-19T06:36:26;15.70;99.90
947;DHT22;460;48.734;9.152;2023-09-19T06:38:55;15.60;99.90
947;DHT22;460;48.734;9.152;2023-09-19T06:41:22;15.70;99.90
947;DHT22;460;48.734;9.152;2023-09-19T06:43:50;15.60;99.90
947;DHT22;460;48.734;9.152;2023-09-19T06:46:19;15.70;99.90
947;DHT22;460;48.734;9.152;2023-09-19T06:48:46;15.70;99.90
947;DHT22;460;48.734;9.152;2023-09-19T06:51:14;15.60;99.90
947;DHT22;460;48.734;9.152;2023-09-19T06:53:42;15.70;99.90
947;DHT22;460;48.734;9.152;2023-09-19T06:56:10;15.70;99.90
947;DHT22;460;48.734;9.152;2023-09-19T06:58:37;15.60;99.90
947;DHT22;460;48.734;9.152;2023-09-19T07:01:03;15.70;99.90
947;DHT22;460;48.734;9.152;2023-09-19T07:03:30;15.80;99.90
947;DHT22;460;48.734;9.152;2023-09-19T07:05:59;15.70;99.90
947;DHT22;460;48.734;9.152;2023-09-19T07:08:25;15.80;99.90
947;DHT22;460;48.734;9.152;2023-09-19T07:10:56;15.80;99.90
947;DHT22;460;48.734;9.152;2023-09-19T07:13:24;15.80;99.90
947;DHT22;460;48.734;9.152;2023-09-19T07:15:51;15.90;99.90
947;DHT22;460;48.734;9.152;2023-09-19T07:18:23;16.00;99.90
947;DHT22;460;48.734;9.152;2023-09-19T07:20:50;16.10;99.90
947;DHT22;460;48.734;9.152;2023-09-19T07:23:17;16.10;99.90
947;DHT22;460;48.734;9.152;2023-09-19T07:25:50;16.00;99.90
947;DHT22;460;48.734;9.152;2023-09-19T07:28:17;16.00;99.90
947;DHT22;460;48.734;9.152;2023-09-19T07:30:47;16.00;99.90
947;DHT22;460;48.734;9.152;2023-09-19T07:33:18;16.00;99.90
947;DHT22;460;48.734;9.152;2023-09-19T07:35:48;16.00;99.90
947;DHT22;460;48.734;9.152;2023-09-19T07:38:18;16.10;99.90
947;DHT22;460;48.734;9.152;2023-09-19T07:40:48;16.20;99.90
947;DHT22;460;48.734;9.152;2023-09-19T07:43:15;16.10;99.90
947;DHT22;460;48.734;9.152;2023-09-19T07:45:43;16.20;99.90
947;DHT22;460;48.734;9.152;2023-09-19T07:48:11;16.20;99.90
947;DHT22;460;48.734;9.152;2023-09-19T07:50:40;16.30;99.90
947;DHT22;460;48.734;9.152;2023-09-19T07:53:09;16.30;99.90
947;DHT22;460;48.734;9.152;2023-09-19T07:55:38;16.30;99.90
947;DHT22;460;48.734;9.152;2023-09-19T07:58:06;16.20;99.90
947;DHT22;460;48.734;9.152;2023-09-19T08:00:33;16.30;99.90
947;DHT22;460;48.734;9.152;2023-09-19T08:03:00;16.40;99.90
947;DHT22;460;48.734;9.152;2023-09-19T08:05:30;16.50;99.90
947;DHT22;460;48.734;9.152;2023-09-19T08:07:59;16.60;99.90
947;DHT22;460;48.734;9.152;2023-09-19T08:10:26;16.80;99.90
947;DHT22;460;48.734;9.152;2023-09-19T08:13:00;16.80;99.90
947;DHT22;460;48.734;9.152;2023-09-19T08:15:28;16.80;99.90
947;DHT22;460;48.734;9.152;2023-09-19T08:17:54;17.10;99.90
947;DHT22;460;48.734;9.152;2023-09-19T08:20:21;17.20;99.90
947;DHT22;460;48.734;9.152;2023-09-19T08:22:51;17.30;99.90
947;DHT22;460;48.734;9.152;2023-09-19T08:25:20;17.40;99.90
947;DHT22;460;48.734;9.152;2023-09-19T08:27:47;17.40;99.90
947;DHT22;460;48.734;9.152;2023-09-19T08:30:15;17.40;99.90
947;DHT22;460;48.734;9.152;2023-09-19T08:32:43;17.40;99.90
947;DHT22;460;48.734;9.152;2023-09-19T08:35:11;17.40;99.90
947;DHT22;460;48.734;9.152;2023-09-19T08:37:38;17.50;99.90
947;DHT22;460;48.734;9.152;2023-09-19T08:40:07;17.60;99.90
947;DHT22;460;48.734;9.152;2023-09-19T08:42:47;17.70;99.90
947;DHT22;460;48.734;9.152;2023-09-19T08:45:15;17.70;99.90
947;DHT22;460;48.734;9.152;2023-09-19T08:47:46;17.80;99.90
947;DHT22;460;48.734;9.152;2023-09-19T08:50:19;17.80;99.90
947;DHT22;460;48.734;9.152;2023-09-19T08:52:51;17.80;99.90
947;DHT22;460;48.734;9.152;2023-09-19T08:55:23;17.90;99.90
947;DHT22;460;48.734;9.152;2023-09-19T08:57:59;17.80;99.90
947;DHT22;460;48.734;9.152;2023-09-19T09:00:28;17.80;99.90
947;DHT22;460;48.734;9.152;2023-09-19T09:02:56;17.90;99.90
947;DHT22;460;48.734;9.152;2023-09-19T09:05:23;18.00;99.90
947;DHT22;460;48.734;9.152;2023-09-19T09:07:52;18.10;99.90
947;DHT22;460;48.734;9.152;2023-09-19T09:10:23;18.20;99.90
947;DHT22;460;48.734;9.152;2023-09-19T09:12:51;18.50;99.90
947;DHT22;460;48.734;9.152;2023-09-19T09:15:19;18.40;99.90
947;DHT22;460;48.734;9.152;2023-09-19T09:17:47;18.40;99.90
947;DHT22;460;48.734;9.152;2023-09-19T09:20:16;18.20;99.90
947;DHT22;460;48.734;9.152;2023-09-19T09:22:51;18.20;99.90
947;DHT22;460;48.734;9.152;2023-09-19T09:25:19;18.20;99.90
947;DHT22;460;48.734;9.152;2023-09-19T09:27:58;18.30;99.90
947;DHT22;460;48.734;9.152;2023-09-19T09:30:33;18.20;99.90
947;DHT22;460;48.734;9.152;2023-09-19T09:33:11;18.20;99.90
947;DHT22;460;48.734;9.152;2023-09-19T09:35:51;18.30;99.90
947;DHT22;460;48.734;9.152;2023-09-19T09:38:22;18.30;99.90
947;DHT22;460;48.734;9.152;2023-09-19T09:40:52;18.30;99.90
947;DHT22;460;48.734;9.152;2023-09-19T09:43:33;18.30;99.90
947;DHT22;460;48.734;9.152;2023-09-19T09:46:12;18.20;99.80
947;DHT22;460;48.734;9.152;2023-09-19T09:48:58;18.10;98.80
947;DHT22;460;48.734;9.152;2023-09-19T09:51:44;18.20;99.40
947;DHT22;460;48.734;9.152;2023-09-19T09:54:15;18.30;98.80
947;DHT22;460;48.734;9.152;2023-09-19T09:56:53;18.40;98.10
947;DHT22;460;48.734;9.152;2023-09-19T09:59:47;18.60;98.60
947;DHT22;460;48.734;9.152;2023-09-19T10:02:18;18.60;98.20
947;DHT22;460;48.734;9.152;2023-09-19T10:04:50;18.50;97.50
947;DHT22;460;48.734;9.152;2023-09-19T10:07:36;18.40;98.30
947;DHT22;460;48.734;9.152;2023-09-19T10:10:07;18.40;97.30
947;DHT22;460;48.734;9.152;2023-09-19T10:12:46;18.40;97.20
947;DHT22;460;48.734;9.152;2023-09-19T10:15:16;18.50;97.10
947;DHT22;460;48.734;9.152;2023-09-19T10:17:46;18.80;96.40
947;DHT22;460;48.734;9.152;2023-09-19T10:20:15;19.10;96.50
947;DHT22;460;48.734;9.152;2023-09-19T10:23:05;19.40;95.40
947;DHT22;460;48.734;9.152;2023-09-19T10:25:37;19.60;93.20
947;DHT22;460;48.734;9.152;2023-09-19T10:28:06;19.70;92.80
947;DHT22;460;48.734;9.152;2023-09-19T10:30:40;19.80;92.80
947;DHT22;460;48.734;9.152;2023-09-19T10:33:10;19.90;92.90
947;DHT22;460;48.734;9.152;2023-09-19T10:35:40;20.00;91.20
947;DHT22;460;48.734;9.152;2023-09-19T10:38:10;20.20;92.90
947;DHT22;460;48.734;9.152;2023-09-19T10:40:38;20.40;91.80
947;DHT22;460;48.734;9.152;2023-09-19T10:43:12;20.20;91.70
947;DHT22;460;48.734;9.152;2023-09-19T10:45:41;20.30;92.40
947;DHT22;460;48.734;9.152;2023-09-19T10:48:10;20.40;90.00
947;DHT22;460;48.734;9.152;2023-09-19T10:50:44;20.50;90.70
947;DHT22;460;48.734;9.152;2023-09-19T10:53:13;20.50;90.30
947;DHT22;460;48.734;9.152;2023-09-19T10:55:47;20.40;89.30
947;DHT22;460;48.734;9.152;2023-09-19T10:58:25;20.20;86.30
947;DHT22;460;48.734;9.152;2023-09-19T11:00:56;20.20;85.30
947;DHT22;460;48.734;9.152;2023-09-19T11:03:27;20.20;87.10
947;DHT22;460;48.734;9.152;2023-09-19T11:06:04;20.50;88.70
947;DHT22;460;48.734;9.152;2023-09-19T11:08:54;20.60;89.00
947;DHT22;460;48.734;9.152;2023-09-19T11:11:42;20.90;89.70
947;DHT22;460;48.734;9.152;2023-09-19T11:14:15;20.80;86.60
947;DHT22;460;48.734;9.152;2023-09-19T11:20:25;20.80;87.70
947;DHT22;460;48.734;9.152;2023-09-19T11:23:17;20.60;86.20
947;DHT22;460;48.734;9.152;2023-09-19T11:25:49;20.70;88.60
947;DHT22;460;48.734;9.152;2023-09-19T11:28:28;21.00;86.60
947;DHT22;460;48.734;9.152;2023-09-19T11:30:56;21.20;87.50
947;DHT22;460;48.734;9.152;2023-09-19T11:33:25;21.30;85.80
947;DHT22;460;48.734;9.152;2023-09-19T11:36:02;21.10;87.10
947;DHT22;460;48.734;9.152;2023-09-19T11:39:00;20.70;85.20
947;DHT22;460;48.734;9.152;2023-09-19T11:41:38;20.90;87.40
947;DHT22;460;48.734;9.152;2023-09-19T11:44:33;20.90;87.20
947;DHT22;460;48.734;9.152;2023-09-19T11:47:06;21.10;87.70
947;DHT22;460;48.734;9.152;2023-09-19T11:49:35;21.00;85.20
947;DHT22;460;48.734;9.152;2023-09-19T11:52:08;20.90;85.80
947;DHT22;460;48.734;9.152;2023-09-19T11:54:36;20.80;87.10
947;DHT22;460;48.734;9.152;2023-09-19T11:57:05;20.90;86.60
947;DHT22;460;48.734;9.152;2023-09-19T11:59:38;20.80;87.20
947;DHT22;460;48.734;9.152;2023-09-19T12:02:06;21.00;88.10
947;DHT22;460;48.734;9.152;2023-09-19T12:04:37;21.00;87.40
947;DHT22;460;48.734;9.152;2023-09-19T12:07:08;20.70;85.30
947;DHT22;460;48.734;9.152;2023-09-19T12:09:41;20.70;86.80
947;DHT22;460;48.734;9.152;2023-09-19T12:12:10;20.60;87.90
947;DHT22;460;48.734;9.152;2023-09-19T12:14:39;20.50;87.70
947;DHT22;460;48.734;9.152;2023-09-19T12:17:08;20.60;87.60
947;DHT22;460;48.734;9.152;2023-09-19T12:19:35;20.70;89.00
947;DHT22;460;48.734;9.152;2023-09-19T12:22:03;20.60;85.60
947;DHT22;460;48.734;9.152;2023-09-19T12:24:32;20.70;85.60
947;DHT22;460;48.734;9.152;2023-09-19T12:27:03;20.70;85.30
947;DHT22;460;48.734;9.152;2023-09-19T12:29:32;20.70;85.60
947;DHT22;460;48.734;9.152;2023-09-19T12:31:59;20.80;87.00
947;DHT22;460;48.734;9.152;2023-09-19T12:34:30;21.10;87.00
947;DHT22;460;48.734;9.152;2023-09-19T12:37:13;21.20;85.90
947;DHT22;460;48.734;9.152;2023-09-19T12:39:44;21.30;85.70
947;DHT22;460;48.734;9.152;2023-09-19T12:42:15;21.40;84.80
947;DHT22;460;48.734;9.152;2023-09-19T12:44:44;21.60;86.70
947;DHT22;460;48.734;9.152;2023-09-19T12:47:14;21.80;84.50
947;DHT22;460;48.734;9.152;2023-09-19T12:50:13;21.80;83.60
947;DHT22;460;48.734;9.152;2023-09-19T12:52:44;21.60;83.80
947;DHT22;460;48.734;9.152;2023-09-19T12:55:24;21.70;81.80
947;DHT22;460;48.734;9.152;2023-09-19T12:58:15;21.80;83.70
947;DHT22;460;48.734;9.152;2023-09-19T13:00:45;21.80;82.40
947;DHT22;460;48.734;9.152;2023-09-19T13:03:14;21.80;81.20
947;DHT22;460;48.734;9.152;2023-09-19T13:05:48;22.00;84.20
947;DHT22;460;48.734;9.152;2023-09-19T13:08:34;22.10;82.70
947;DHT22;460;48.734;9.152;2023-09-19T13:11:09;21.80;82.30
947;DHT22;460;48.734;9.152;2023-09-19T13:13:42;21.90;81.40
947;DHT22;460;48.734;9.152;2023-09-19T13:16:14;21.90;81.50
947;DHT22;460;48.734;9.152;2023-09-19T13:18:46;21.80;80.00
947;DHT22;460;48.734;9.152;2023-09-19T13:21:16;21.80;81.30
947;DHT22;460;48.734;9.152;2023-09-19T13:23:50;21.80;80.50
947;DHT22;460;48.734;9.152;2023-09-19T13:26:18;21.80;81.70
947;DHT22;460;48.734;9.152;2023-09-19T13:28:45;21.90;79.70
947;DHT22;460;48.734;9.152;2023-09-19T13:31:13;22.00;83.60
947;DHT22;460;48.734;9.152;2023-09-19T13:33:43;21.90;81.80
947;DHT22;460;48.734;9.152;2023-09-19T13:36:18;21.80;79.80
947;DHT22;460;48.734;9.152;2023-09-19T13:38:45;21.80;80.80
947;DHT22;460;48.734;9.152;2023-09-19T13:41:15;21.90;80.10
947;DHT22;460;48.734;9.152;2023-09-19T13:43:43;22.10;80.30
947;DHT22;460;48.734;9.152;2023-09-19T13:46:14;22.10;79.40
947;DHT22;460;48.734;9.152;2023-09-19T13:48:46;22.20;80.10
947;DHT22;460;48.734;9.152;2023-09-19T13:51:15;22.30;78.70
947;DHT22;460;48.734;9.152;2023-09-19T13:53:42;22.40;77.90
947;DHT22;460;48.734;9.152;2023-09-19T13:56:09;22.40;76.90
947;DHT22;460;48.734;9.152;2023-09-19T13:58:47;22.50;78.00
947;DHT22;460;48.734;9.152;2023-09-19T14:01:23;22.70;76.70
947;DHT22;460;48.734;9.152;2023-09-19T14:03:52;23.20;75.30
947;DHT22;460;48.734;9.152;2023-09-19T14:06:20;24.00;75.00
947;DHT22;460;48.734;9.152;2023-09-19T14:08:47;24.70;75.50
947;DHT22;460;48.734;9.152;2023-09-19T14:11:15;25.20;74.30
947;DHT22;460;48.734;9.152;2023-09-19T14:13:42;25.70;70.10
947;DHT22;460;48.734;9.152;2023-09-19T14:16:13;26.10;67.90
947;DHT22;460;48.734;9.152;2023-09-19T14:18:40;25.70;66.70
947;DHT22;460;48.734;9.152;2023-09-19T14:21:07;25.20;67.20
947;DHT22;460;48.734;9.152;2023-09-19T14:23:36;24.50;67.50
947;DHT22;460;48.734;9.152;2023-09-19T14:26:03;23.70;69.30
947;DHT22;460;48.734;9.152;2023-09-19T14:28:31;23.40;70.60
947;DHT22;460;48.734;9.152;2023-09-19T14:31:04;23.20;73.20
947;DHT22;460;48.734;9.152;2023-09-19T14:33:35;23.10;71.80
947;DHT22;460;48.734;9.152;2023-09-19T14:36:04;23.00;74.10
947;DHT22;460;48.734;9.152;2023-09-19T14:38:32;22.90;72.90
947;DHT22;460;48.734;9.152;2023-09-19T14:41:00;22.80;74.80
947;DHT22;460;48.734;9.152;2023-09-19T14:43:27;22.70;72.80
947;DHT22;460;48.734;9.152;2023-09-19T14:46:02;22.70;74.90
947;DHT22;460;48.734;9.152;2023-09-19T14:48:29;22.80;74.30
947;DHT22;460;48.734;9.152;2023-09-19T14:51:01;22.90;72.70
947;DHT22;460;48.734;9.152;2023-09-19T14:53:29;22.80;71.80
947;DHT22;460;48.734;9.152;2023-09-19T14:55:55;22.80;72.70
947;DHT22;460;48.734;9.152;2023-09-19T14:58:22;22.70;75.50
947;DHT22;460;48.734;9.152;2023-09-19T15:00:51;22.70;73.70
947;DHT22;460;48.734;9.152;2023-09-19T15:03:18;22.70;73.20
947;DHT22;460;48.734;9.152;2023-09-19T15:05:45;22.50;69.60
947;DHT22;460;48.734;9.152;2023-09-19T15:08:13;22.30;71.20
947;DHT22;460;48.734;9.152;2023-09-19T15:10:40;22.20;73.70
947;DHT22;460;48.734;9.152;2023-09-19T15:13:07;22.00;71.60
947;DHT22;460;48.734;9.152;2023-09-19T15:15:34;22.00;71.80
947;DHT22;460;48.734;9.152;2023-09-19T15:18:01;21.90;74.60
947;DHT22;460;48.734;9.152;2023-09-19T15:20:28;21.90;72.80
947;DHT22;460;48.734;9.152;2023-09-19T15:22:55;21.90;72.70
947;DHT22;460;48.734;9.152;2023-09-19T15:25:25;21.90;72.10
947;DHT22;460;48.734;9.152;2023-09-19T15:27:53;21.90;73.10
947;DHT22;460;48.734;9.152;2023-09-19T15:30:19;21.80;72.70
947;DHT22;460;48.734;9.152;2023-09-19T15:32:46;21.80;72.60
947;DHT22;460;48.734;9.152;2023-09-19T15:35:14;21.90;73.00
947;DHT22;460;48.734;9.152;2023-09-19T15:37:42;21.80;78.10
947;DHT22;460;48.734;9.152;2023-09-19T15:40:10;21.70;77.80
947;DHT22;460;48.734;9.152;2023-09-19T15:42:40;21.70;76.70
947;DHT22;460;48.734;9.152;2023-09-19T15:45:08;21.70;74.20
947;DHT22;460;48.734;9.152;2023-09-19T15:47:36;21.60;75.60
947;DHT22;460;48.734;9.152;2023-09-19T15:50:04;21.60;78.60
947;DHT22;460;48.734;9.152;2023-09-19T15:52:30;21.60;74.00
947;DHT22;460;48.734;9.152;2023-09-19T15:54:57;21.50;74.60
947;DHT22;460;48.734;9.152;2023-09-19T15:57:26;21.40;76.60
947;DHT22;460;48.734;9.152;2023-09-19T15:59:55;21.30;74.00
947;DHT22;460;48.734;9.152;2023-09-19T16:02:22;21.20;74.50
947;DHT22;460;48.734;9.152;2023-09-19T16:04:50;21.00;74.20
947;DHT22;460;48.734;9.152;2023-09-19T16:07:17;21.00;74.70
947;DHT22;460;48.734;9.152;2023-09-19T16:09:44;20.90;76.00
947;DHT22;460;48.734;9.152;2023-09-19T16:12:11;20.80;76.00
947;DHT22;460;48.734;9.152;2023-09-19T16:14:42;20.90;75.20
947;DHT22;460;48.734;9.152;2023-09-19T16:17:11;20.80;76.40
947;DHT22;460;48.734;9.152;2023-09-19T16:19:38;20.80;74.80
947;DHT22;460;48.734;9.152;2023-09-19T16:22:05;20.80;78.80
947;DHT22;460;48.734;9.152;2023-09-19T16:24:34;20.70;79.40
947;DHT22;460;48.734;9.152;2023-09-19T16:27:00;20.70;77.00
947;DHT22;460;48.734;9.152;2023-09-19T16:29:27;20.50;76.40
947;DHT22;460;48.734;9.152;2023-09-19T16:31:54;20.50;79.20
947;DHT22;460;48.734;9.152;2023-09-19T16:34:22;20.50;78.90
947;DHT22;460;48.734;9.152;2023-09-19T16:36:49;20.40;77.90
947;DHT22;460;48.734;9.152;2023-09-19T16:39:16;20.50;78.50
947;DHT22;460;48.734;9.152;2023-09-19T16:41:43;20.40;79.00
947;DHT22;460;48.734;9.152;2023-09-19T16:44:10;20.50;78.60
947;DHT22;460;48.734;9.152;2023-09-19T16:46:36;20.30;78.10
947;DHT22;460;48.734;9.152;2023-09-19T16:49:03;20.20;80.80
947;DHT22;460;48.734;9.152;2023-09-19T16:51:32;20.10;81.40
947;DHT22;460;48.734;9.152;2023-09-19T16:53:59;20.00;83.30
947;DHT22;460;48.734;9.152;2023-09-19T16:56:26;20.00;82.00